sensor_id;sensor_type;location;lat;lon;timestamp;P1;durP1;ratioP1;P2;durP2;ratioP2
17345;SDS011;8790;53.590;10.002;2022-12-10T00:02:13;40.23;;;18.00;;
17345;SDS011;8790;53.590;10.002;2022-12-10T00:04:45;41.83;;;17.53;;
17345;SDS011;8790;53.590;10.002;2022-12-10T00:07:16;36.13;;;16.97;;
17345;SDS011;8790;53.590;10.002;2022-12-10T00:09:48;42.87;;;17.87;;
17345;SDS011;8790;53.590;10.002;2022-12-10T00:12:20;38.67;;;18.00;;
17345;SDS011;8790;53.590;10.002;2022-12-10T00:14:51;37.63;;;16.63;;
17345;SDS011;8790;53.590;10.002;2022-12-10T00:17:24;35.67;;;17.00;;
17345;SDS011;8790;53.590;10.002;2022-12-10T00:19:56;33.73;;;15.97;;
17345;SDS011;8790;53.590;10.002;2022-12-10T00:22:28;35.50;;;16.40;;
17345;SDS011;8790;53.590;10.002;2022-12-10T00:24:59;33.70;;;16.10;;
17345;SDS011;8790;53.590;10.002;2022-12-10T00:27:31;32.00;;;14.97;;
17345;SDS011;8790;53.590;10.002;2022-12-10T00:30:03;33.33;;;15.63;;
17345;SDS011;8790;53.590;10.002;2022-12-10T00:32:37;35.47;;;16.23;;
17345;SDS011;8790;53.590;10.002;2022-12-10T00:35:09;33.50;;;15.33;;
17345;SDS011;8790;53.590;10.002;2022-12-10T00:37:41;33.67;;;16.07;;
17345;SDS011;8790;53.590;10.002;2022-12-10T00:40:13;27.37;;;13.93;;
17345;SDS011;8790;53.590;10.002;2022-12-10T00:42:44;30.30;;;14.27;;
17345;SDS011;8790;53.590;10.002;2022-12-10T00:45:16;31.73;;;14.47;;
17345;SDS011;8790;53.590;10.002;2022-12-10T00:47:49;30.57;;;15.07;;
17345;SDS011;8790;53.590;10.002;2022-12-10T00:50:21;30.37;;;14.37;;
17345;SDS011;8790;53.590;10.002;2022-12-10T00:52:52;28.10;;;13.57;;
17345;SDS011;8790;53.590;10.002;2022-12-10T00:55:24;28.00;;;13.70;;
17345;SDS011;8790;53.590;10.002;2022-12-10T00:57:56;28.10;;;14.37;;
17345;SDS011;8790;53.590;10.002;2022-12-10T01:00:28;29.07;;;14.23;;
17345;SDS011;8790;53.590;10.002;2022-12-10T01:03:01;30.23;;;14.10;;
17345;SDS011;8790;53.590;10.002;2022-12-10T01:05:32;28.47;;;13.20;;
17345;SDS011;8790;53.590;10.002;2022-12-10T01:08:04;29.27;;;13.97;;
17345;SDS011;8790;53.590;10.002;2022-12-10T01:10:36;26.63;;;14.03;;
17345;SDS011;8790;53.590;10.002;2022-12-10T01:13:08;27.53;;;13.33;;
17345;SDS011;8790;53.590;10.002;2022-12-10T01:15:39;28.70;;;13.80;;
17345;SDS011;8790;53.590;10.002;2022-12-10T01:18:12;27.00;;;13.03;;
17345;SDS011;8790;53.590;10.002;2022-12-10T01:20:44;26.67;;;13.43;;
17345;SDS011;8790;53.590;10.002;2022-12-10T01:23:16;28.23;;;12.77;;
17345;SDS011;8790;53.590;10.002;2022-12-10T01:25:48;28.10;;;13.60;;
17345;SDS011;8790;53.590;10.002;2022-12-10T01:28:19;27.67;;;13.20;;
17345;SDS011;8790;53.590;10.002;2022-12-10T01:30:51;25.27;;;12.70;;
17345;SDS011;8790;53.590;10.002;2022-12-10T01:33:24;24.20;;;12.43;;
17345;SDS011;8790;53.590;10.002;2022-12-10T01:35:57;24.43;;;12.97;;
17345;SDS011;8790;53.590;10.002;2022-12-10T01:38:33;26.70;;;12.73;;
17345;SDS011;8790;53.590;10.002;2022-12-10T01:41:09;27.40;;;13.07;;
17345;SDS011;8790;53.590;10.002;2022-12-10T01:43:53;24.90;;;12.47;;
17345;SDS011;8790;53.590;10.002;2022-12-10T01:46:27;27.27;;;12.73;;
17345;SDS011;8790;53.590;10.002;2022-12-10T01:49:03;22.70;;;12.10;;
17345;SDS011;8790;53.590;10.002;2022-12-10T01:51:37;22.23;;;11.73;;
17345;SDS011;8790;53.590;10.002;2022-12-10T01:54:11;25.23;;;12.33;;
17345;SDS011;8790;53.590;10.002;2022-12-10T01:56:47;21.43;;;11.40;;
17345;SDS011;8790;53.590;10.002;2022-12-10T01:59:26;24.40;;;11.20;;
17345;SDS011;8790;53.590;10.002;2022-12-10T02:02:01;22.27;;;10.70;;
17345;SDS011;8790;53.590;10.002;2022-12-10T02:04:45;22.17;;;11.10;;
17345;SDS011;8790;53.590;10.002;2022-12-10T02:10:24;20.37;;;10.40;;
17345;SDS011;8790;53.590;10.002;2022-12-10T02:13:05;20.87;;;10.83;;
17345;SDS011;8790;53.590;10.002;2022-12-10T02:15:41;20.20;;;10.57;;
17345;SDS011;8790;53.590;10.002;2022-12-10T02:18:19;18.57;;;10.00;;
17345;SDS011;8790;53.590;10.002;2022-12-10T02:20:57;19.57;;;10.47;;
17345;SDS011;8790;53.590;10.002;2022-12-10T02:23:33;19.03;;;9.60;;
17345;SDS011;8790;53.590;10.002;2022-12-10T02:26:10;18.90;;;10.10;;
17345;SDS011;8790;53.590;10.002;2022-12-10T02:28:46;19.60;;;10.23;;
17345;SDS011;8790;53.590;10.002;2022-12-10T02:31:25;20.20;;;10.07;;
17345;SDS011;8790;53.590;10.002;2022-12-10T02:34:00;17.53;;;9.53;;
17345;SDS011;8790;53.590;10.002;2022-12-10T02:36:37;19.13;;;10.17;;
17345;SDS011;8790;53.590;10.002;2022-12-10T02:39:11;16.70;;;9.07;;
17345;SDS011;8790;53.590;10.002;2022-12-10T02:41:54;18.47;;;9.87;;
17345;SDS011;8790;53.590;10.002;2022-12-10T02:44:26;19.07;;;9.40;;
17345;SDS011;8790;53.590;10.002;2022-12-10T02:47:02;19.73;;;10.30;;
17345;SDS011;8790;53.590;10.002;2022-12-10T02:49:39;21.00;;;10.40;;
17345;SDS011;8790;53.590;10.002;2022-12-10T02:52:13;17.87;;;9.60;;
17345;SDS011;8790;53.590;10.002;2022-12-10T02:54:48;19.17;;;9.67;;
17345;SDS011;8790;53.590;10.002;2022-12-10T02:57:33;17.63;;;9.37;;
17345;SDS011;8790;53.590;10.002;2022-12-10T03:00:10;17.37;;;9.30;;
17345;SDS011;8790;53.590;10.002;2022-12-10T03:03:09;17.90;;;9.07;;
17345;SDS011;8790;53.590;10.002;2022-12-10T03:06:06;17.13;;;9.57;;
17345;SDS011;8790;53.590;10.002;2022-12-10T03:08:47;16.80;;;9.17;;
17345;SDS011;8790;53.590;10.002;2022-12-10T03:11:22;21.13;;;10.33;;
17345;SDS011;8790;53.590;10.002;2022-12-10T03:13:54;16.80;;;9.70;;
17345;SDS011;8790;53.590;10.002;2022-12-10T03:16:32;18.60;;;10.00;;
17345;SDS011;8790;53.590;10.002;2022-12-10T03:19:09;17.33;;;9.40;;
17345;SDS011;8790;53.590;10.002;2022-12-10T03:21:43;16.03;;;9.33;;
17345;SDS011;8790;53.590;10.002;2022-12-10T03:24:18;17.47;;;9.77;;
17345;SDS011;8790;53.590;10.002;2022-12-10T03:26:51;17.50;;;9.60;;
17345;SDS011;8790;53.590;10.002;2022-12-10T03:29:24;17.60;;;9.20;;
17345;SDS011;8790;53.590;10.002;2022-12-10T03:31:59;14.60;;;8.73;;
17345;SDS011;8790;53.590;10.002;2022-12-10T03:34:34;16.47;;;9.40;;
17345;SDS011;8790;53.590;10.002;2022-12-10T03:37:06;13.70;;;8.80;;
17345;SDS011;8790;53.590;10.002;2022-12-10T03:39:38;13.37;;;8.33;;
17345;SDS011;8790;53.590;10.002;2022-12-10T03:42:12;16.80;;;9.23;;
17345;SDS011;8790;53.590;10.002;2022-12-10T03:44:43;13.13;;;8.23;;
17345;SDS011;8790;53.590;10.002;2022-12-10T03:47:15;15.30;;;8.87;;
17345;SDS011;8790;53.590;10.002;2022-12-10T03:49:49;14.97;;;9.03;;
17345;SDS011;8790;53.590;10.002;2022-12-10T03:52:20;13.30;;;8.40;;
17345;SDS011;8790;53.590;10.002;2022-12-10T03:54:52;15.83;;;9.17;;
17345;SDS011;8790;53.590;10.002;2022-12-10T03:57:24;13.17;;;7.20;;
17345;SDS011;8790;53.590;10.002;2022-12-10T03:59:56;14.47;;;8.70;;
17345;SDS011;8790;53.590;10.002;2022-12-10T04:02:27;15.90;;;8.67;;
17345;SDS011;8790;53.590;10.002;2022-12-10T04:05:00;15.33;;;8.97;;
17345;SDS011;8790;53.590;10.002;2022-12-10T04:07:32;14.23;;;8.53;;
17345;SDS011;8790;53.590;10.002;2022-12-10T04:10:04;13.93;;;8.40;;
17345;SDS011;8790;53.590;10.002;2022-12-10T04:12:36;14.60;;;8.70;;
17345;SDS011;8790;53.590;10.002;2022-12-10T04:15:08;13.97;;;8.73;;
17345;SDS011;8790;53.590;10.002;2022-12-10T04:17:58;14.10;;;8.77;;
17345;SDS011;8790;53.590;10.002;2022-12-10T04:20:31;15.03;;;9.00;;
17345;SDS011;8790;53.590;10.002;2022-12-10T04:23:16;13.37;;;8.87;;
17345;SDS011;8790;53.590;10.002;2022-12-10T04:26:06;14.00;;;8.77;;
17345;SDS011;8790;53.590;10.002;2022-12-10T04:28:55;13.93;;;7.70;;
17345;SDS011;8790;53.590;10.002;2022-12-10T04:31:27;12.07;;;7.97;;
17345;SDS011;8790;53.590;10.002;2022-12-10T04:33:59;13.90;;;7.40;;
17345;SDS011;8790;53.590;10.002;2022-12-10T04:36:32;13.57;;;8.00;;
17345;SDS011;8790;53.590;10.002;2022-12-10T04:39:03;13.53;;;8.17;;
17345;SDS011;8790;53.590;10.002;2022-12-10T04:41:35;15.00;;;8.27;;
17345;SDS011;8790;53.590;10.002;2022-12-10T04:44:07;13.10;;;7.70;;
17345;SDS011;8790;53.590;10.002;2022-12-10T04:46:39;15.10;;;8.67;;
17345;SDS011;8790;53.590;10.002;2022-12-10T04:49:11;16.73;;;8.73;;
17345;SDS011;8790;53.590;10.002;2022-12-10T04:51:44;15.47;;;9.27;;
17345;SDS011;8790;53.590;10.002;2022-12-10T04:54:16;13.73;;;8.37;;
17345;SDS011;8790;53.590;10.002;2022-12-10T04:56:48;14.60;;;8.80;;
17345;SDS011;8790;53.590;10.002;2022-12-10T04:59:20;16.30;;;8.83;;
17345;SDS011;8790;53.590;10.002;2022-12-10T05:01:52;16.37;;;8.70;;
17345;SDS011;8790;53.590;10.002;2022-12-10T05:04:23;14.80;;;8.40;;
17345;SDS011;8790;53.590;10.002;2022-12-10T05:06:56;12.60;;;8.53;;
17345;SDS011;8790;53.590;10.002;2022-12-10T05:09:29;13.87;;;8.53;;
17345;SDS011;8790;53.590;10.002;2022-12-10T05:12:01;14.33;;;8.83;;
17345;SDS011;8790;53.590;10.002;2022-12-10T05:14:32;14.70;;;8.70;;
17345;SDS011;8790;53.590;10.002;2022-12-10T05:17:04;15.97;;;9.13;;
17345;SDS011;8790;53.590;10.002;2022-12-10T05:19:36;12.87;;;8.33;;
17345;SDS011;8790;53.590;10.002;2022-12-10T05:22:09;13.97;;;8.10;;
17345;SDS011;8790;53.590;10.002;2022-12-10T05:24:58;13.40;;;8.33;;
17345;SDS011;8790;53.590;10.002;2022-12-10T05:27:31;13.90;;;8.30;;
17345;SDS011;8790;53.590;10.002;2022-12-10T05:30:03;13.67;;;8.67;;
17345;SDS011;8790;53.590;10.002;2022-12-10T05:32:36;13.33;;;8.40;;
17345;SDS011;8790;53.590;10.002;2022-12-10T05:35:08;13.57;;;8.50;;
17345;SDS011;8790;53.590;10.002;2022-12-10T05:37:41;11.67;;;8.20;;
17345;SDS011;8790;53.590;10.002;2022-12-10T05:40:12;14.63;;;8.87;;
17345;SDS011;8790;53.590;10.002;2022-12-10T05:42:44;13.20;;;8.27;;
17345;SDS011;8790;53.590;10.002;2022-12-10T05:45:16;13.10;;;8.40;;
17345;SDS011;8790;53.590;10.002;2022-12-10T05:47:47;15.27;;;9.07;;
17345;SDS011;8790;53.590;10.002;2022-12-10T05:50:19;15.20;;;8.57;;
17345;SDS011;8790;53.590;10.002;2022-12-10T05:52:52;12.47;;;8.60;;
17345;SDS011;8790;53.590;10.002;2022-12-10T05:55:24;14.57;;;8.80;;
17345;SDS011;8790;53.590;10.002;2022-12-10T05:57:57;13.40;;;8.57;;
17345;SDS011;8790;53.590;10.002;2022-12-10T06:00:28;13.83;;;8.77;;
17345;SDS011;8790;53.590;10.002;2022-12-10T06:03:00;13.40;;;8.20;;
17345;SDS011;8790;53.590;10.002;2022-12-10T06:05:35;12.43;;;8.30;;
17345;SDS011;8790;53.590;10.002;2022-12-10T06:08:09;13.27;;;7.90;;
17345;SDS011;8790;53.590;10.002;2022-12-10T06:10:40;14.97;;;8.77;;
17345;SDS011;8790;53.590;10.002;2022-12-10T06:13:12;14.67;;;9.20;;
17345;SDS011;8790;53.590;10.002;2022-12-10T06:15:44;13.87;;;8.10;;
17345;SDS011;8790;53.590;10.002;2022-12-10T06:18:15;11.53;;;8.27;;
17345;SDS011;8790;53.590;10.002;2022-12-10T06:20:47;11.13;;;7.37;;
17345;SDS011;8790;53.590;10.002;2022-12-10T06:23:20;13.63;;;9.10;;
17345;SDS011;8790;53.590;10.002;2022-12-10T06:25:52;14.57;;;9.37;;
17345;SDS011;8790;53.590;10.002;2022-12-10T06:28:23;12.60;;;8.53;;
17345;SDS011;8790;53.590;10.002;2022-12-10T06:30:57;11.53;;;7.93;;
17345;SDS011;8790;53.590;10.002;2022-12-10T06:33:28;12.83;;;8.10;;
17345;SDS011;8790;53.590;10.002;2022-12-10T06:36:02;12.33;;;7.87;;
17345;SDS011;8790;53.590;10.002;2022-12-10T06:38:36;13.27;;;8.47;;
17345;SDS011;8790;53.590;10.002;2022-12-10T06:41:09;11.17;;;7.70;;
17345;SDS011;8790;53.590;10.002;2022-12-10T06:43:42;10.77;;;7.90;;
17345;SDS011;8790;53.590;10.002;2022-12-10T06:46:15;13.97;;;9.17;;
17345;SDS011;8790;53.590;10.002;2022-12-10T06:48:49;12.47;;;8.23;;
17345;SDS011;8790;53.590;10.002;2022-12-10T06:51:21;12.67;;;8.20;;
17345;SDS011;8790;53.590;10.002;2022-12-10T06:53:54;11.80;;;8.03;;
17345;SDS011;8790;53.590;10.002;2022-12-10T06:56:25;11.07;;;7.13;;
17345;SDS011;8790;53.590;10.002;2022-12-10T06:58:57;10.50;;;7.50;;
17345;SDS011;8790;53.590;10.002;2022-12-10T07:01:29;12.13;;;7.80;;
17345;SDS011;8790;53.590;10.002;2022-12-10T07:04:00;11.17;;;7.97;;
17345;SDS011;8790;53.590;10.002;2022-12-10T07:06:32;10.90;;;7.50;;
17345;SDS011;8790;53.590;10.002;2022-12-10T07:09:05;11.77;;;8.20;;
17345;SDS011;8790;53.590;10.002;2022-12-10T07:11:37;11.37;;;8.03;;
17345;SDS011;8790;53.590;10.002;2022-12-10T07:14:10;12.37;;;8.10;;
17345;SDS011;8790;53.590;10.002;2022-12-10T07:16:44;11.57;;;7.93;;
17345;SDS011;8790;53.590;10.002;2022-12-10T07:19:16;11.57;;;8.10;;
17345;SDS011;8790;53.590;10.002;2022-12-10T07:21:48;11.13;;;8.17;;
17345;SDS011;8790;53.590;10.002;2022-12-10T07:24:22;12.50;;;8.13;;
17345;SDS011;8790;53.590;10.002;2022-12-10T07:26:54;11.70;;;8.10;;
17345;SDS011;8790;53.590;10.002;2022-12-10T07:29:26;12.73;;;8.17;;
17345;SDS011;8790;53.590;10.002;2022-12-10T07:31:58;13.10;;;8.50;;
17345;SDS011;8790;53.590;10.002;2022-12-10T07:34:30;12.27;;;8.20;;
17345;SDS011;8790;53.590;10.002;2022-12-10T07:37:01;12.80;;;8.20;;
17345;SDS011;8790;53.590;10.002;2022-12-10T07:39:35;13.63;;;9.00;;
17345;SDS011;8790;53.590;10.002;2022-12-10T07:42:06;12.57;;;8.53;;
17345;SDS011;8790;53.590;10.002;2022-12-10T07:44:41;13.33;;;8.73;;
17345;SDS011;8790;53.590;10.002;2022-12-10T07:47:13;12.50;;;9.10;;
17345;SDS011;8790;53.590;10.002;2022-12-10T07:49:45;14.13;;;9.10;;
17345;SDS011;8790;53.590;10.002;2022-12-10T07:52:16;12.73;;;8.93;;
17345;SDS011;8790;53.590;10.002;2022-12-10T07:54:49;11.17;;;7.80;;
17345;SDS011;8790;53.590;10.002;2022-12-10T07:57:21;14.27;;;8.80;;
17345;SDS011;8790;53.590;10.002;2022-12-10T07:59:53;12.43;;;8.53;;
17345;SDS011;8790;53.590;10.002;2022-12-10T08:02:24;12.63;;;7.80;;
17345;SDS011;8790;53.590;10.002;2022-12-10T08:04:56;11.50;;;8.37;;
17345;SDS011;8790;53.590;10.002;2022-12-10T08:07:28;12.53;;;8.30;;
17345;SDS011;8790;53.590;10.002;2022-12-10T08:10:01;10.60;;;7.53;;
17345;SDS011;8790;53.590;10.002;2022-12-10T08:12:33;11.90;;;8.27;;
17345;SDS011;8790;53.590;10.002;2022-12-10T08:15:05;11.93;;;7.77;;
17345;SDS011;8790;53.590;10.002;2022-12-10T08:17:37;12.43;;;7.90;;
17345;SDS011;8790;53.590;10.002;2022-12-10T08:20:09;11.23;;;8.00;;
17345;SDS011;8790;53.590;10.002;2022-12-10T08:22:41;12.10;;;7.40;;
17345;SDS011;8790;53.590;10.002;2022-12-10T08:25:14;11.57;;;7.17;;
17345;SDS011;8790;53.590;10.002;2022-12-10T08:27:46;12.97;;;7.97;;
17345;SDS011;8790;53.590;10.002;2022-12-10T08:30:18;11.30;;;7.40;;
17345;SDS011;8790;53.590;10.002;2022-12-10T08:32:50;11.57;;;8.37;;
17345;SDS011;8790;53.590;10.002;2022-12-10T08:35:21;11.40;;;7.73;;
17345;SDS011;8790;53.590;10.002;2022-12-10T08:37:53;13.83;;;8.63;;
17345;SDS011;8790;53.590;10.002;2022-12-10T08:40:26;12.10;;;7.90;;
17345;SDS011;8790;53.590;10.002;2022-12-10T08:42:58;12.60;;;8.30;;
17345;SDS011;8790;53.590;10.002;2022-12-10T08:45:29;13.10;;;8.53;;
17345;SDS011;8790;53.590;10.002;2022-12-10T08:48:01;13.07;;;8.63;;
17345;SDS011;8790;53.590;10.002;2022-12-10T08:50:34;13.00;;;8.83;;
17345;SDS011;8790;53.590;10.002;2022-12-10T08:53:07;14.57;;;8.73;;
17345;SDS011;8790;53.590;10.002;2022-12-10T08:55:40;12.93;;;8.13;;
17345;SDS011;8790;53.590;10.002;2022-12-10T08:58:11;15.33;;;8.30;;
17345;SDS011;8790;53.590;10.002;2022-12-10T09:00:44;11.60;;;8.40;;
17345;SDS011;8790;53.590;10.002;2022-12-10T09:03:15;16.20;;;9.57;;
17345;SDS011;8790;53.590;10.002;2022-12-10T09:05:47;14.17;;;8.53;;
17345;SDS011;8790;53.590;10.002;2022-12-10T09:08:19;17.17;;;9.03;;
17345;SDS011;8790;53.590;10.002;2022-12-10T09:10:55;12.67;;;8.17;;
17345;SDS011;8790;53.590;10.002;2022-12-10T09:13:26;14.00;;;8.77;;
17345;SDS011;8790;53.590;10.002;2022-12-10T09:15:58;13.83;;;8.43;;
17345;SDS011;8790;53.590;10.002;2022-12-10T09:18:30;14.83;;;8.83;;
17345;SDS011;8790;53.590;10.002;2022-12-10T09:21:04;16.17;;;9.10;;
17345;SDS011;8790;53.590;10.002;2022-12-10T09:23:36;14.10;;;8.97;;
17345;SDS011;8790;53.590;10.002;2022-12-10T09:26:10;13.63;;;8.97;;
17345;SDS011;8790;53.590;10.002;2022-12-10T09:28:44;14.00;;;8.67;;
17345;SDS011;8790;53.590;10.002;2022-12-10T09:31:17;13.07;;;8.37;;
17345;SDS011;8790;53.590;10.002;2022-12-10T09:33:51;14.87;;;9.00;;
17345;SDS011;8790;53.590;10.002;2022-12-10T09:36:23;14.27;;;8.50;;
17345;SDS011;8790;53.590;10.002;2022-12-10T09:38:55;15.40;;;9.40;;
17345;SDS011;8790;53.590;10.002;2022-12-10T09:44:36;13.20;;;8.40;;
17345;SDS011;8790;53.590;10.002;2022-12-10T09:47:13;12.50;;;8.17;;
17345;SDS011;8790;53.590;10.002;2022-12-10T09:49:51;11.90;;;7.67;;
17345;SDS011;8790;53.590;10.002;2022-12-10T09:52:33;10.33;;;7.23;;
17345;SDS011;8790;53.590;10.002;2022-12-10T09:55:10;12.37;;;7.40;;
17345;SDS011;8790;53.590;10.002;2022-12-10T09:57:46;11.07;;;7.40;;
17345;SDS011;8790;53.590;10.002;2022-12-10T10:00:22;11.93;;;7.43;;
17345;SDS011;8790;53.590;10.002;2022-12-10T10:02:58;13.00;;;7.87;;
17345;SDS011;8790;53.590;10.002;2022-12-10T10:05:31;14.57;;;9.07;;
17345;SDS011;8790;53.590;10.002;2022-12-10T10:08:06;14.13;;;9.27;;
17345;SDS011;8790;53.590;10.002;2022-12-10T10:10:45;13.50;;;7.83;;
17345;SDS011;8790;53.590;10.002;2022-12-10T10:13:21;11.33;;;7.60;;
17345;SDS011;8790;53.590;10.002;2022-12-10T10:16:07;12.00;;;7.57;;
17345;SDS011;8790;53.590;10.002;2022-12-10T10:18:51;11.13;;;7.40;;
17345;SDS011;8790;53.590;10.002;2022-12-10T10:21:28;10.10;;;6.97;;
17345;SDS011;8790;53.590;10.002;2022-12-10T10:24:04;10.90;;;7.40;;
17345;SDS011;8790;53.590;10.002;2022-12-10T10:26:36;10.47;;;7.40;;
17345;SDS011;8790;53.590;10.002;2022-12-10T10:29:10;13.13;;;9.00;;
17345;SDS011;8790;53.590;10.002;2022-12-10T10:31:44;11.77;;;8.33;;
17345;SDS011;8790;53.590;10.002;2022-12-10T10:34:16;12.87;;;9.03;;
17345;SDS011;8790;53.590;10.002;2022-12-10T10:36:52;11.27;;;7.50;;
17345;SDS011;8790;53.590;10.002;2022-12-10T10:39:28;11.93;;;7.77;;
17345;SDS011;8790;53.590;10.002;2022-12-10T10:42:07;10.93;;;7.03;;
17345;SDS011;8790;53.590;10.002;2022-12-10T10:44:42;8.97;;;6.50;;
17345;SDS011;8790;53.590;10.002;2022-12-10T10:47:23;9.70;;;6.80;;
17345;SDS011;8790;53.590;10.002;2022-12-10T10:49:57;12.17;;;7.33;;
17345;SDS011;8790;53.590;10.002;2022-12-10T10:52:30;12.83;;;7.63;;
17345;SDS011;8790;53.590;10.002;2022-12-10T10:55:10;9.07;;;6.70;;
17345;SDS011;8790;53.590;10.002;2022-12-10T10:58:02;12.77;;;7.90;;
17345;SDS011;8790;53.590;10.002;2022-12-10T11:00:35;10.80;;;7.63;;
17345;SDS011;8790;53.590;10.002;2022-12-10T11:03:07;10.40;;;7.00;;
17345;SDS011;8790;53.590;10.002;2022-12-10T11:05:38;10.70;;;7.90;;
17345;SDS011;8790;53.590;10.002;2022-12-10T11:08:13;11.30;;;7.40;;
17345;SDS011;8790;53.590;10.002;2022-12-10T11:10:48;10.63;;;7.27;;
17345;SDS011;8790;53.590;10.002;2022-12-10T11:13:23;10.93;;;7.77;;
17345;SDS011;8790;53.590;10.002;2022-12-10T11:15:58;11.47;;;7.30;;
17345;SDS011;8790;53.590;10.002;2022-12-10T11:18:34;10.17;;;7.13;;
17345;SDS011;8790;53.590;10.002;2022-12-10T11:21:15;10.83;;;7.10;;
17345;SDS011;8790;53.590;10.002;2022-12-10T11:23:52;9.40;;;6.73;;
17345;SDS011;8790;53.590;10.002;2022-12-10T11:26:38;9.83;;;6.47;;
17345;SDS011;8790;53.590;10.002;2022-12-10T11:29:21;10.33;;;7.13;;
17345;SDS011;8790;53.590;10.002;2022-12-10T11:32:07;9.93;;;6.70;;
17345;SDS011;8790;53.590;10.002;2022-12-10T11:34:52;10.03;;;7.03;;
17345;SDS011;8790;53.590;10.002;2022-12-10T11:37:34;10.10;;;7.27;;
17345;SDS011;8790;53.590;10.002;2022-12-10T11:40:19;10.07;;;7.30;;
17345;SDS011;8790;53.590;10.002;2022-12-10T11:43:07;10.70;;;6.97;;
17345;SDS011;8790;53.590;10.002;2022-12-10T11:46:01;9.53;;;7.07;;
17345;SDS011;8790;53.590;10.002;2022-12-10T11:48:49;12.63;;;7.87;;
17345;SDS011;8790;53.590;10.002;2022-12-10T11:51:30;11.87;;;8.10;;
17345;SDS011;8790;53.590;10.002;2022-12-10T11:54:15;9.97;;;7.30;;
17345;SDS011;8790;53.590;10.002;2022-12-10T11:57:02;10.97;;;7.60;;
17345;SDS011;8790;53.590;10.002;2022-12-10T11:59:40;10.73;;;7.33;;
17345;SDS011;8790;53.590;10.002;2022-12-10T12:05:29;13.07;;;8.87;;
17345;SDS011;8790;53.590;10.002;2022-12-10T12:08:13;16.33;;;10.07;;
17345;SDS011;8790;53.590;10.002;2022-12-10T12:10:57;11.57;;;7.90;;
17345;SDS011;8790;53.590;10.002;2022-12-10T12:13:39;9.10;;;6.70;;
17345;SDS011;8790;53.590;10.002;2022-12-10T12:16:19;12.40;;;7.30;;
17345;SDS011;8790;53.590;10.002;2022-12-10T12:18:58;11.67;;;7.90;;
17345;SDS011;8790;53.590;10.002;2022-12-10T12:21:34;10.43;;;7.70;;
17345;SDS011;8790;53.590;10.002;2022-12-10T12:24:09;10.73;;;7.77;;
17345;SDS011;8790;53.590;10.002;2022-12-10T12:26:48;11.40;;;8.13;;
17345;SDS011;8790;53.590;10.002;2022-12-10T12:29:25;11.43;;;8.60;;
17345;SDS011;8790;53.590;10.002;2022-12-10T12:32:01;11.17;;;7.37;;
17345;SDS011;8790;53.590;10.002;2022-12-10T12:34:37;11.30;;;8.30;;
17345;SDS011;8790;53.590;10.002;2022-12-10T12:37:18;12.33;;;7.83;;
17345;SDS011;8790;53.590;10.002;2022-12-10T12:39:55;11.70;;;8.30;;
17345;SDS011;8790;53.590;10.002;2022-12-10T12:42:35;12.97;;;8.80;;
17345;SDS011;8790;53.590;10.002;2022-12-10T12:45:13;10.93;;;8.40;;
17345;SDS011;8790;53.590;10.002;2022-12-10T12:47:50;13.13;;;8.37;;
17345;SDS011;8790;53.590;10.002;2022-12-10T12:50:30;13.37;;;9.33;;
17345;SDS011;8790;53.590;10.002;2022-12-10T12:53:13;15.13;;;12.73;;
17345;SDS011;8790;53.590;10.002;2022-12-10T12:55:48;14.37;;;9.63;;
17345;SDS011;8790;53.590;10.002;2022-12-10T12:58:31;12.27;;;9.30;;
17345;SDS011;8790;53.590;10.002;2022-12-10T13:01:15;12.43;;;9.33;;
17345;SDS011;8790;53.590;10.002;2022-12-10T13:03:51;12.60;;;9.17;;
17345;SDS011;8790;53.590;10.002;2022-12-10T13:06:27;13.50;;;8.97;;
17345;SDS011;8790;53.590;10.002;2022-12-10T13:09:23;14.90;;;9.00;;
17345;SDS011;8790;53.590;10.002;2022-12-10T13:14:54;10.93;;;7.87;;
17345;SDS011;8790;53.590;10.002;2022-12-10T13:17:35;10.70;;;7.80;;
17345;SDS011;8790;53.590;10.002;2022-12-10T13:23:04;11.00;;;7.70;;
17345;SDS011;8790;53.590;10.002;2022-12-10T13:25:58;11.77;;;8.23;;
17345;SDS011;8790;53.590;10.002;2022-12-10T13:28:40;12.70;;;7.97;;
17345;SDS011;8790;53.590;10.002;2022-12-10T13:31:33;10.43;;;8.13;;
17345;SDS011;8790;53.590;10.002;2022-12-10T13:34:20;12.47;;;8.10;;
17345;SDS011;8790;53.590;10.002;2022-12-10T13:37:05;11.27;;;7.97;;
17345;SDS011;8790;53.590;10.002;2022-12-10T13:39:46;12.90;;;8.20;;
17345;SDS011;8790;53.590;10.002;2022-12-10T13:42:32;11.40;;;8.40;;
17345;SDS011;8790;53.590;10.002;2022-12-10T13:45:29;11.23;;;7.97;;
17345;SDS011;8790;53.590;10.002;2022-12-10T13:51:09;15.73;;;10.17;;
17345;SDS011;8790;53.590;10.002;2022-12-10T13:53:51;12.27;;;9.13;;
17345;SDS011;8790;53.590;10.002;2022-12-10T13:56:32;12.37;;;8.67;;
17345;SDS011;8790;53.590;10.002;2022-12-10T13:59:16;12.73;;;9.00;;
17345;SDS011;8790;53.590;10.002;2022-12-10T14:01:58;13.07;;;9.03;;
17345;SDS011;8790;53.590;10.002;2022-12-10T14:04:53;9.83;;;7.10;;
17345;SDS011;8790;53.590;10.002;2022-12-10T14:07:34;13.50;;;8.10;;
17345;SDS011;8790;53.590;10.002;2022-12-10T14:10:08;13.47;;;8.53;;
17345;SDS011;8790;53.590;10.002;2022-12-10T14:12:46;13.37;;;8.37;;
17345;SDS011;8790;53.590;10.002;2022-12-10T14:15:20;13.37;;;8.93;;
17345;SDS011;8790;53.590;10.002;2022-12-10T14:17:57;10.53;;;7.93;;
17345;SDS011;8790;53.590;10.002;2022-12-10T14:20:32;12.37;;;8.50;;
17345;SDS011;8790;53.590;10.002;2022-12-10T14:23:19;12.53;;;8.50;;
17345;SDS011;8790;53.590;10.002;2022-12-10T14:26:07;12.97;;;8.77;;
17345;SDS011;8790;53.590;10.002;2022-12-10T14:28:42;19.23;;;11.30;;
17345;SDS011;8790;53.590;10.002;2022-12-10T14:31:18;14.23;;;8.80;;
17345;SDS011;8790;53.590;10.002;2022-12-10T14:33:52;13.93;;;9.30;;
17345;SDS011;8790;53.590;10.002;2022-12-10T14:36:29;11.80;;;8.50;;
17345;SDS011;8790;53.590;10.002;2022-12-10T14:39:03;14.10;;;8.87;;
17345;SDS011;8790;53.590;10.002;2022-12-10T14:41:35;11.63;;;8.30;;
17345;SDS011;8790;53.590;10.002;2022-12-10T14:44:08;12.30;;;7.80;;
17345;SDS011;8790;53.590;10.002;2022-12-10T14:46:47;12.93;;;8.67;;
17345;SDS011;8790;53.590;10.002;2022-12-10T14:49:21;12.37;;;8.80;;
17345;SDS011;8790;53.590;10.002;2022-12-10T14:51:57;14.00;;;8.30;;
17345;SDS011;8790;53.590;10.002;2022-12-10T14:54:32;12.63;;;8.87;;
17345;SDS011;8790;53.590;10.002;2022-12-10T14:57:06;15.23;;;9.10;;
17345;SDS011;8790;53.590;10.002;2022-12-10T14:59:41;13.53;;;9.13;;
17345;SDS011;8790;53.590;10.002;2022-12-10T15:02:19;12.00;;;8.57;;
17345;SDS011;8790;53.590;10.002;2022-12-10T15:04:56;12.77;;;8.73;;
17345;SDS011;8790;53.590;10.002;2022-12-10T15:10:04;14.47;;;8.90;;
17345;SDS011;8790;53.590;10.002;2022-12-10T15:12:41;10.90;;;8.43;;
17345;SDS011;8790;53.590;10.002;2022-12-10T15:15:16;14.87;;;9.37;;
17345;SDS011;8790;53.590;10.002;2022-12-10T15:17:55;14.47;;;9.33;;
17345;SDS011;8790;53.590;10.002;2022-12-10T15:20:31;13.13;;;8.40;;
17345;SDS011;8790;53.590;10.002;2022-12-10T15:23:16;14.57;;;9.13;;
17345;SDS011;8790;53.590;10.002;2022-12-10T15:25:52;12.93;;;8.53;;
17345;SDS011;8790;53.590;10.002;2022-12-10T15:28:31;15.20;;;9.67;;
17345;SDS011;8790;53.590;10.002;2022-12-10T15:31:11;14.13;;;9.40;;
17345;SDS011;8790;53.590;10.002;2022-12-10T15:33:47;13.93;;;9.33;;
17345;SDS011;8790;53.590;10.002;2022-12-10T15:36:23;15.20;;;9.30;;
17345;SDS011;8790;53.590;10.002;2022-12-10T15:39:02;13.33;;;9.80;;
17345;SDS011;8790;53.590;10.002;2022-12-10T15:41:43;15.47;;;10.03;;
17345;SDS011;8790;53.590;10.002;2022-12-10T15:44:23;13.67;;;9.63;;